createdAt,value
2018-04-22T00:01:45.053Z,14.83
2018-04-22T00:04:11.435Z,14.82
2018-04-22T00:06:37.810Z,14.85
2018-04-22T00:09:05.118Z,14.81
2018-04-22T00:11:31.504Z,14.76
2018-04-22T00:13:57.873Z,14.69
2018-04-22T00:16:24.225Z,14.65
2018-04-22T00:18:50.657Z,14.60
2018-04-22T00:21:17.021Z,14.60
2018-04-22T00:23:43.372Z,14.69
2018-04-22T00:26:09.770Z,14.68
2018-04-22T00:28:36.354Z,14.68
2018-04-22T00:31:02.806Z,14.68
2018-04-22T00:33:29.133Z,14.66
2018-04-22T00:35:55.466Z,14.56
2018-04-22T00:38:21.866Z,14.45
2018-04-22T00:40:48.224Z,14.35
2018-04-22T00:43:14.648Z,14.43
2018-04-22T00:45:41.068Z,14.50
2018-04-22T00:48:07.434Z,14.51
2018-04-22T00:50:33.806Z,14.50
2018-04-22T00:53:00.201Z,14.37
2018-04-22T00:55:26.593Z,14.38
2018-04-22T00:57:52.962Z,14.38
2018-04-22T01:00:19.382Z,14.48
2018-04-22T01:02:45.812Z,14.25
2018-04-22T01:05:12.190Z,14.05
2018-04-22T01:07:38.603Z,13.76
2018-04-22T01:10:04.937Z,13.70
2018-04-22T01:12:31.322Z,13.89
2018-04-22T01:14:57.697Z,13.96
2018-04-22T01:17:24.020Z,13.96
2018-04-22T01:19:50.436Z,13.81
2018-04-22T01:22:16.805Z,13.71
2018-04-22T01:24:43.165Z,13.76
2018-04-22T01:27:09.523Z,13.76
2018-04-22T01:29:35.833Z,13.73
2018-04-22T01:32:02.298Z,13.80
2018-04-22T01:34:28.694Z,13.84
2018-04-22T01:36:55.090Z,13.75
2018-04-22T01:39:21.469Z,13.68
2018-04-22T01:41:47.930Z,13.59
2018-04-22T01:44:14.292Z,13.67
2018-04-22T01:46:40.679Z,13.71
2018-04-22T01:49:07.101Z,13.72
2018-04-22T01:51:33.437Z,13.61
2018-04-22T01:53:59.892Z,13.53
2018-04-22T01:56:26.222Z,13.49
2018-04-22T01:58:52.594Z,13.40
2018-04-22T02:01:18.976Z,13.21
2018-04-22T02:03:45.377Z,13.12
2018-04-22T02:06:11.805Z,13.15
2018-04-22T02:08:38.257Z,13.23
2018-04-22T02:11:04.656Z,13.30
2018-04-22T02:13:31.032Z,13.38
2018-04-22T02:15:57.415Z,13.40
2018-04-22T02:18:23.920Z,13.19
2018-04-22T02:20:50.353Z,13.04
2018-04-22T02:23:16.740Z,12.83
2018-04-22T02:25:43.115Z,12.78
2018-04-22T02:28:09.601Z,12.77
2018-04-22T02:30:35.934Z,12.87
2018-04-22T02:33:02.297Z,12.97
2018-04-22T02:35:28.614Z,12.83
2018-04-22T02:37:55.010Z,12.65
2018-04-22T02:40:21.382Z,12.86
2018-04-22T02:42:47.714Z,12.76
2018-04-22T02:45:14.038Z,12.61
2018-04-22T02:47:40.426Z,12.47
2018-04-22T02:50:06.812Z,12.43
2018-04-22T02:52:33.188Z,12.48
2018-04-22T02:54:59.801Z,12.53
2018-04-22T02:57:26.172Z,12.47
2018-04-22T02:59:52.534Z,12.62
2018-04-22T03:02:18.926Z,12.46
2018-04-22T03:04:45.293Z,12.32
2018-04-22T03:07:11.660Z,12.24
2018-04-22T03:09:38.081Z,12.28
2018-04-22T03:12:04.418Z,12.47
2018-04-22T03:14:30.815Z,12.61
2018-04-22T03:16:57.289Z,12.47
2018-04-22T03:19:23.642Z,12.53
2018-04-22T03:21:49.969Z,12.54
2018-04-22T03:24:16.313Z,12.72
2018-04-22T03:26:42.697Z,12.69
2018-04-22T03:29:09.081Z,12.66
2018-04-22T03:31:35.493Z,12.68
2018-04-22T03:34:02.002Z,12.55
2018-04-22T03:36:28.362Z,12.41
2018-04-22T03:38:54.709Z,12.46
2018-04-22T03:41:21.065Z,12.37
2018-04-22T03:43:47.428Z,12.27
2018-04-22T03:46:13.853Z,12.29
2018-04-22T03:48:40.239Z,12.33
2018-04-22T03:51:06.617Z,12.28
2018-04-22T03:53:33.014Z,12.25
2018-04-22T03:55:59.365Z,12.42
2018-04-22T03:58:25.741Z,12.48
2018-04-22T04:00:52.095Z,12.45
2018-04-22T04:03:18.457Z,12.59
2018-04-22T04:05:44.829Z,12.65
2018-04-22T04:08:11.198Z,12.59
2018-04-22T04:10:37.617Z,12.77
2018-04-22T04:13:04.024Z,12.86
2018-04-22T04:15:30.393Z,12.87
2018-04-22T04:31:32.395Z,13.17
2018-04-22T04:33:58.831Z,13.20
2018-04-22T04:36:25.178Z,13.26
2018-04-22T04:38:51.538Z,13.34
2018-04-22T04:41:17.918Z,13.34
2018-04-22T04:43:44.261Z,13.37
2018-04-22T04:46:10.613Z,13.42
2018-04-22T04:48:36.984Z,13.46
2018-04-22T04:51:03.409Z,13.54
2018-04-22T04:53:29.911Z,13.60
2018-04-22T04:55:56.322Z,13.67
2018-04-22T04:58:22.775Z,13.72
2018-04-22T05:00:49.146Z,13.74
2018-04-22T05:03:15.527Z,13.66
2018-04-22T05:05:41.837Z,13.70
2018-04-22T05:08:08.184Z,13.75
2018-04-22T05:10:34.517Z,13.91
2018-04-22T05:13:00.909Z,14.02
2018-04-22T05:15:27.323Z,14.06
2018-04-22T05:17:53.730Z,14.26
2018-04-22T05:20:21.842Z,14.43
2018-04-22T05:22:48.268Z,14.58
2018-04-22T05:25:14.722Z,14.61
2018-04-22T05:27:41.308Z,14.64
2018-04-22T05:30:07.670Z,14.72
2018-04-22T05:32:34.044Z,14.81
2018-04-22T05:35:00.771Z,14.92
2018-04-22T05:37:27.117Z,14.97
2018-04-22T05:39:53.462Z,15.13
2018-04-22T05:42:20.152Z,15.32
2018-04-22T05:44:46.549Z,15.53
2018-04-22T05:47:13.080Z,15.68
2018-04-22T05:49:39.444Z,15.80
2018-04-22T05:52:05.826Z,15.91
2018-04-22T05:54:32.194Z,15.86
2018-04-22T05:56:58.540Z,15.97
2018-04-22T05:59:25.042Z,16.01
2018-04-22T06:01:51.480Z,16.12
2018-04-22T06:04:17.832Z,16.23
2018-04-22T06:06:44.270Z,16.33
2018-04-22T06:09:10.691Z,16.42
2018-04-22T06:11:37.114Z,16.39
2018-04-22T06:14:03.501Z,16.56
2018-04-22T06:16:30.384Z,16.39
2018-04-22T06:18:56.757Z,16.56
2018-04-22T06:21:23.086Z,16.78
2018-04-22T06:23:49.650Z,16.97
2018-04-22T06:26:16.034Z,17.13
2018-04-22T06:28:42.422Z,17.31
2018-04-22T06:31:08.775Z,17.39
2018-04-22T06:33:35.164Z,17.54
2018-04-22T06:36:01.545Z,17.65
2018-04-22T06:38:27.981Z,17.54
2018-04-22T06:40:54.289Z,17.78
2018-04-22T06:43:20.664Z,17.90
2018-04-22T06:45:47.038Z,18.10
2018-04-22T06:48:13.437Z,18.14
2018-04-22T06:50:39.940Z,18.07
2018-04-22T06:53:06.372Z,18.28
2018-04-22T06:55:32.738Z,18.37
2018-04-22T06:57:59.214Z,18.33
2018-04-22T07:00:25.607Z,18.46
2018-04-22T07:02:52.109Z,18.66
2018-04-22T07:05:18.505Z,18.84
2018-04-22T07:07:44.841Z,18.99
2018-04-22T07:10:11.204Z,19.02
2018-04-22T07:12:37.586Z,18.93
2018-04-22T07:15:03.952Z,19.10
2018-04-22T07:17:30.296Z,19.03
2018-04-22T07:19:56.792Z,19.10
2018-04-22T07:22:23.142Z,19.01
2018-04-22T07:24:49.545Z,19.28
2018-04-22T07:27:16.194Z,19.57
2018-04-22T07:29:42.566Z,19.50
2018-04-22T07:32:09.017Z,19.50
2018-04-22T07:34:35.419Z,19.78
2018-04-22T07:37:01.787Z,19.99
2018-04-22T07:39:28.146Z,20.04
2018-04-22T07:41:54.504Z,20.01
2018-04-22T07:44:20.855Z,20.17
2018-04-22T07:46:47.204Z,20.33
2018-04-22T07:49:13.577Z,20.48
2018-04-22T07:51:39.924Z,20.39
2018-04-22T07:54:06.389Z,20.41
2018-04-22T07:56:32.772Z,20.40
2018-04-22T07:58:59.102Z,20.58
2018-04-22T08:01:25.584Z,20.71
2018-04-22T08:03:51.951Z,20.90
2018-04-22T08:06:18.294Z,20.98
2018-04-22T08:08:44.653Z,21.05
2018-04-22T08:11:11.015Z,21.12
2018-04-22T08:13:37.444Z,21.24
2018-04-22T08:16:03.810Z,21.19
2018-04-22T08:18:30.172Z,21.26
2018-04-22T08:20:56.523Z,21.36
2018-04-22T08:23:22.865Z,21.44
2018-04-22T08:25:49.287Z,21.55
2018-04-22T08:28:15.669Z,21.62
2018-04-22T08:30:42.233Z,21.66
2018-04-22T08:33:08.919Z,21.69
2018-04-22T08:35:35.273Z,21.71
2018-04-22T08:38:01.705Z,21.77
2018-04-22T08:40:28.110Z,21.88
2018-04-22T08:42:54.478Z,21.99
2018-04-22T08:45:20.873Z,22.04
2018-04-22T08:47:47.234Z,22.14
2018-04-22T08:50:13.634Z,22.20
2018-04-22T08:52:40.037Z,22.35
2018-04-22T08:55:06.387Z,22.46
2018-04-22T08:57:32.782Z,22.55
2018-04-22T08:59:59.183Z,22.64
2018-04-22T09:02:25.533Z,22.52
2018-04-22T09:04:52.033Z,22.63
2018-04-22T09:07:18.475Z,22.59
2018-04-22T09:09:44.987Z,22.76
2018-04-22T09:12:11.448Z,22.86
2018-04-22T09:14:37.853Z,22.87
2018-04-22T09:17:04.226Z,22.81
2018-04-22T09:19:30.578Z,22.83
2018-04-22T09:21:57.017Z,22.98
2018-04-22T09:24:23.358Z,23.06
2018-04-22T09:26:49.750Z,23.13
2018-04-22T09:29:16.079Z,23.20
2018-04-22T09:31:42.477Z,23.33
2018-04-22T09:34:08.927Z,23.45
2018-04-22T09:36:35.286Z,23.52
2018-04-22T09:39:01.673Z,23.56
2018-04-22T09:41:28.186Z,23.52
2018-04-22T09:43:54.538Z,23.63
2018-04-22T09:46:20.964Z,23.71
2018-04-22T09:48:47.296Z,23.83
2018-04-22T09:51:13.677Z,23.87
2018-04-22T09:53:40.053Z,23.86
2018-04-22T09:56:06.417Z,23.90
2018-04-22T09:58:32.902Z,24.04
2018-04-22T10:01:00.281Z,24.03
2018-04-22T10:03:26.717Z,24.03
2018-04-22T10:05:53.106Z,23.91
2018-04-22T10:08:19.481Z,24.04
2018-04-22T10:10:45.839Z,24.16
2018-04-22T10:13:12.149Z,24.27
2018-04-22T10:15:38.550Z,24.35
2018-04-22T10:18:04.929Z,24.28
2018-04-22T10:20:31.414Z,24.29
2018-04-22T10:22:57.901Z,24.35
2018-04-22T10:25:24.271Z,24.45
2018-04-22T10:27:50.645Z,24.34
2018-04-22T10:30:17.103Z,24.34
2018-04-22T10:32:43.445Z,24.38
2018-04-22T10:35:09.843Z,24.41
2018-04-22T10:37:36.254Z,24.52
2018-04-22T10:40:02.721Z,24.57
2018-04-22T10:42:29.103Z,24.42
2018-04-22T10:44:55.495Z,24.03
2018-04-22T10:47:21.862Z,23.53
2018-04-22T10:49:48.349Z,23.54
2018-04-22T10:52:14.872Z,23.71
2018-04-22T10:54:41.310Z,24.02
2018-04-22T10:57:07.726Z,24.25
2018-04-22T10:59:34.095Z,24.37
2018-04-22T11:02:00.505Z,24.48
2018-04-22T11:04:26.865Z,24.53
2018-04-22T11:06:53.249Z,24.46
2018-04-22T11:09:19.642Z,24.54
2018-04-22T11:11:46.281Z,24.69
2018-04-22T11:14:12.695Z,24.81
2018-04-22T11:16:39.053Z,24.90
2018-04-22T11:19:05.411Z,24.93
2018-04-22T11:21:31.843Z,24.94
2018-04-22T11:23:58.241Z,24.91
2018-04-22T11:26:24.629Z,25.03
2018-04-22T11:28:51.026Z,25.17
2018-04-22T11:31:17.406Z,25.30
2018-04-22T11:33:43.770Z,25.26
2018-04-22T11:36:10.171Z,25.16
2018-04-22T11:38:36.534Z,25.34
2018-04-22T11:41:02.917Z,25.18
2018-04-22T11:43:29.361Z,25.26
2018-04-22T11:45:55.726Z,25.17
2018-04-22T11:48:22.105Z,25.19
2018-04-22T11:50:48.504Z,25.17
2018-04-22T11:53:14.867Z,24.90
2018-04-22T11:55:41.249Z,24.94
2018-04-22T11:58:07.627Z,25.00
2018-04-22T12:00:34.111Z,25.02
2018-04-22T12:03:00.470Z,25.00
2018-04-22T12:05:26.877Z,25.07
2018-04-22T12:07:53.253Z,25.04
2018-04-22T12:10:19.742Z,25.05
2018-04-22T12:12:46.149Z,25.19
2018-04-22T12:15:12.510Z,25.11
2018-04-22T12:17:38.878Z,25.15
2018-04-22T12:20:05.267Z,25.13
2018-04-22T12:22:31.621Z,25.28
2018-04-22T12:24:58.036Z,25.19
2018-04-22T12:27:24.394Z,25.20
2018-04-22T12:29:50.762Z,25.23
2018-04-22T12:32:17.205Z,25.37
2018-04-22T12:34:43.569Z,25.37
2018-04-22T12:37:09.941Z,25.25
2018-04-22T12:39:36.325Z,25.22
2018-04-22T12:42:02.728Z,25.37
2018-04-22T12:44:29.109Z,25.28
2018-04-22T12:46:55.473Z,25.29
2018-04-22T12:49:21.821Z,25.36
2018-04-22T12:51:48.291Z,25.46
2018-04-22T12:54:14.669Z,25.39
2018-04-22T12:56:41.017Z,25.40
2018-04-22T12:59:07.373Z,25.42
2018-04-22T13:01:33.735Z,25.36
2018-04-22T13:04:00.191Z,25.27
2018-04-22T13:06:26.542Z,25.30
2018-04-22T13:08:52.969Z,25.41
2018-04-22T13:11:19.456Z,25.41
2018-04-22T13:13:46.218Z,25.42
2018-04-22T13:16:12.614Z,25.45
2018-04-22T13:18:39.014Z,25.47
2018-04-22T13:21:05.398Z,25.47
2018-04-22T13:23:32.001Z,25.52
2018-04-22T13:25:58.346Z,25.57
2018-04-22T13:28:24.705Z,25.61
2018-04-22T13:30:51.371Z,25.49
2018-04-22T13:33:17.758Z,25.44
2018-04-22T13:35:44.173Z,25.54
2018-04-22T13:38:10.585Z,25.50
2018-04-22T13:40:36.962Z,25.52
2018-04-22T13:43:03.351Z,25.58
2018-04-22T13:45:29.758Z,25.63
2018-04-22T13:47:56.146Z,25.71
2018-04-22T13:50:22.513Z,25.71
2018-04-22T13:52:48.919Z,25.69
2018-04-22T13:55:15.331Z,25.71
2018-04-22T13:57:41.704Z,25.74
2018-04-22T14:00:08.077Z,25.73
2018-04-22T14:02:34.563Z,25.67
2018-04-22T14:05:01.090Z,25.77
2018-04-22T14:07:27.470Z,25.87
2018-04-22T14:09:53.979Z,25.76
2018-04-22T14:12:20.332Z,25.75
2018-04-22T14:14:46.790Z,25.67
2018-04-22T14:17:13.152Z,25.58
2018-04-22T14:19:39.517Z,25.63
2018-04-22T14:22:05.897Z,25.60
2018-04-22T14:24:32.286Z,25.77
2018-04-22T14:26:58.630Z,25.74
2018-04-22T14:29:25.050Z,25.74
2018-04-22T14:31:51.603Z,25.70
2018-04-22T14:34:17.950Z,25.73
2018-04-22T14:36:44.373Z,25.67
2018-04-22T14:39:10.797Z,25.91
2018-04-22T14:41:37.230Z,25.70
2018-04-22T14:44:15.845Z,25.76
2018-04-22T14:46:42.228Z,25.80
2018-04-22T14:49:08.763Z,25.74
2018-04-22T14:51:35.309Z,25.77
2018-04-22T14:54:01.662Z,25.79
2018-04-22T14:56:28.375Z,25.84
2018-04-22T14:58:54.745Z,25.68
2018-04-22T15:01:21.141Z,25.61
2018-04-22T15:03:47.502Z,25.66
2018-04-22T15:06:13.866Z,25.77
2018-04-22T15:08:40.339Z,25.78
2018-04-22T15:11:06.710Z,25.73
2018-04-22T15:13:33.125Z,25.63
2018-04-22T15:15:59.498Z,25.63
2018-04-22T15:18:25.972Z,25.59
2018-04-22T15:20:52.349Z,25.47
2018-04-22T15:23:18.755Z,25.48
2018-04-22T15:25:45.246Z,25.48
2018-04-22T15:28:11.601Z,25.60
2018-04-22T15:30:38.004Z,25.68
2018-04-22T15:33:04.381Z,25.71
2018-04-22T15:35:30.738Z,25.75
2018-04-22T15:37:57.114Z,25.61
2018-04-22T15:40:23.491Z,25.62
2018-04-22T15:42:49.898Z,25.58
2018-04-22T15:45:16.331Z,25.63
2018-04-22T15:47:42.685Z,25.73
2018-04-22T15:50:09.037Z,25.63
2018-04-22T15:52:35.407Z,25.66
2018-04-22T15:55:01.791Z,25.55
2018-04-22T15:57:28.498Z,25.52
2018-04-22T15:59:55.034Z,25.57
2018-04-22T16:02:21.364Z,25.45
2018-04-22T16:04:47.765Z,25.42
2018-04-22T16:07:14.232Z,25.35
2018-04-22T16:09:40.600Z,25.27
2018-04-22T16:12:06.929Z,25.28
2018-04-22T16:14:33.285Z,25.25
2018-04-22T16:16:59.626Z,25.21
2018-04-22T16:19:26.046Z,25.16
2018-04-22T16:21:52.420Z,25.11
2018-04-22T16:24:18.769Z,25.06
2018-04-22T16:26:45.194Z,25.04
2018-04-22T16:29:11.626Z,25.11
2018-04-22T16:31:38.333Z,25.04
2018-04-22T16:34:04.700Z,25.00
2018-04-22T16:36:31.203Z,24.98
2018-04-22T16:38:57.572Z,24.91
2018-04-22T16:41:24.023Z,24.79
2018-04-22T16:43:50.330Z,24.83
2018-04-22T16:46:16.686Z,24.79
2018-04-22T16:48:43.087Z,24.76
2018-04-22T16:51:09.465Z,24.66
2018-04-22T16:53:35.901Z,24.56
2018-04-22T16:56:02.269Z,24.50
2018-04-22T16:58:28.686Z,24.49
2018-04-22T17:00:55.050Z,24.38
2018-04-22T17:03:21.417Z,24.37
2018-04-22T17:05:47.824Z,24.30
2018-04-22T17:08:14.214Z,24.27
2018-04-22T17:10:40.597Z,24.26
2018-04-22T17:13:06.969Z,24.22
2018-04-22T17:15:33.296Z,24.18
2018-04-22T17:17:59.658Z,24.13
2018-04-22T17:20:26.011Z,24.09
2018-04-22T17:22:52.378Z,24.05
2018-04-22T17:25:18.785Z,23.98
2018-04-22T17:27:45.201Z,23.93
2018-04-22T17:30:11.659Z,23.86
2018-04-22T17:32:38.045Z,23.82
2018-04-22T17:35:04.443Z,23.71
2018-04-22T17:37:30.802Z,23.66
2018-04-22T17:39:57.181Z,23.61
2018-04-22T17:42:23.546Z,23.61
2018-04-22T17:44:49.873Z,23.58
2018-04-22T17:47:16.362Z,23.55
2018-04-22T17:49:42.758Z,23.51
2018-04-22T17:52:09.168Z,23.45
2018-04-22T17:54:35.737Z,23.38
2018-04-22T17:57:02.461Z,23.19
2018-04-22T17:59:28.822Z,23.25
2018-04-22T18:01:55.222Z,23.21
2018-04-22T18:04:21.577Z,23.17
2018-04-22T18:06:47.964Z,23.11
2018-04-22T18:09:14.341Z,22.93
2018-04-22T18:11:40.725Z,22.99
2018-04-22T18:14:07.096Z,22.99
2018-04-22T18:16:33.563Z,22.93
2018-04-22T18:18:59.996Z,22.89
2018-04-22T18:21:26.460Z,22.86
2018-04-22T18:23:52.877Z,22.81
2018-04-22T18:26:19.300Z,22.76
2018-04-22T18:28:45.661Z,22.69
2018-04-22T18:31:12.164Z,22.61
2018-04-22T18:33:38.522Z,22.52
2018-04-22T18:36:04.909Z,22.46
2018-04-22T18:38:31.315Z,22.40
2018-04-22T18:40:57.674Z,22.36
2018-04-22T18:43:24.102Z,22.32
2018-04-22T18:45:50.489Z,22.27
2018-04-22T18:48:16.873Z,22.21
2018-04-22T18:50:43.242Z,22.16
2018-04-22T18:53:09.602Z,22.08
2018-04-22T18:55:35.949Z,22.00
2018-04-22T18:58:02.343Z,21.95
2018-04-22T19:00:28.741Z,21.92
2018-04-22T19:02:55.113Z,21.90
2018-04-22T19:05:21.693Z,21.86
2018-04-22T19:07:48.031Z,21.83
2018-04-22T19:10:14.519Z,21.81
2018-04-22T19:12:40.890Z,21.80
2018-04-22T19:15:07.265Z,21.71
2018-04-22T19:17:33.646Z,21.68
2018-04-22T19:20:00.003Z,21.66
2018-04-22T19:22:26.361Z,21.60
2018-04-22T19:24:52.754Z,21.58
2018-04-22T19:27:19.212Z,21.51
2018-04-22T19:29:45.774Z,21.49
2018-04-22T19:32:12.231Z,21.41
2018-04-22T19:34:38.694Z,21.41
2018-04-22T19:37:05.066Z,21.35
2018-04-22T19:39:31.459Z,21.35
2018-04-22T19:41:57.829Z,21.33
2018-04-22T19:44:24.253Z,21.30
2018-04-22T19:46:50.737Z,21.30
2018-04-22T19:49:17.155Z,21.28
2018-04-22T19:51:44.381Z,21.19
2018-04-22T19:54:11.464Z,21.16
2018-04-22T19:56:38.644Z,21.08
2018-04-22T19:59:05.372Z,21.00
2018-04-22T20:01:31.838Z,20.95
2018-04-22T20:03:58.223Z,20.87
2018-04-22T20:06:24.606Z,20.81
2018-04-22T20:08:50.997Z,20.75
2018-04-22T20:11:17.446Z,20.70
2018-04-22T20:13:43.810Z,20.66
2018-04-22T20:16:10.243Z,20.64
2018-04-22T20:18:36.649Z,20.58
2018-04-22T20:21:03.027Z,20.53
2018-04-22T20:23:29.519Z,20.52
2018-04-22T20:25:56.184Z,20.50
2018-04-22T20:28:22.578Z,20.45
2018-04-22T20:30:48.954Z,20.43
2018-04-22T20:33:15.322Z,20.35
2018-04-22T20:35:41.794Z,20.38
2018-04-22T20:38:08.213Z,20.39
2018-04-22T20:40:34.622Z,20.35
2018-04-22T20:43:00.981Z,20.30
2018-04-22T20:45:27.406Z,20.23
2018-04-22T20:47:53.891Z,20.20
2018-04-22T20:50:20.277Z,20.14
2018-04-22T20:52:46.761Z,20.14
2018-04-22T20:55:13.174Z,20.20
2018-04-22T20:57:39.610Z,20.19
2018-04-22T21:00:06.093Z,20.18
2018-04-22T21:02:32.607Z,20.18
2018-04-22T21:04:59.050Z,20.12
2018-04-22T21:07:25.525Z,20.12
2018-04-22T21:09:51.979Z,20.07
2018-04-22T21:12:18.358Z,20.01
2018-04-22T21:14:44.717Z,19.97
2018-04-22T21:17:11.098Z,19.95
2018-04-22T21:19:37.448Z,19.94
2018-04-22T21:22:03.814Z,19.91
2018-04-22T21:24:30.189Z,19.90
2018-04-22T21:26:56.534Z,19.88
2018-04-22T21:29:22.924Z,19.85
2018-04-22T21:31:49.302Z,19.84
2018-04-22T21:34:15.703Z,19.79
2018-04-22T21:36:42.057Z,19.78
2018-04-22T21:39:08.401Z,19.76
2018-04-22T21:41:34.762Z,19.71
2018-04-22T21:44:01.179Z,19.70
2018-04-22T21:46:27.568Z,19.67
2018-04-22T21:48:53.965Z,19.63
2018-04-22T21:51:20.325Z,19.54
2018-04-22T21:53:46.705Z,19.45
2018-04-22T21:56:13.093Z,19.35
2018-04-22T21:58:39.465Z,19.28
2018-04-22T22:01:05.842Z,19.21
2018-04-22T22:03:32.453Z,19.16
2018-04-22T22:05:58.979Z,19.02
2018-04-22T22:08:25.717Z,19.00
2018-04-22T22:10:52.113Z,18.96
2018-04-22T22:13:18.453Z,18.94
2018-04-22T22:15:44.950Z,18.86
2018-04-22T22:18:11.280Z,18.92
2018-04-22T22:20:37.733Z,18.94
2018-04-22T22:23:04.090Z,18.96
2018-04-22T22:25:30.468Z,18.82
2018-04-22T22:27:56.841Z,18.86
2018-04-22T22:30:23.241Z,18.86
2018-04-22T22:32:49.614Z,18.82
2018-04-22T22:35:15.981Z,18.78
2018-04-22T22:37:42.461Z,18.70
2018-04-22T22:40:08.824Z,18.56
2018-04-22T22:42:35.324Z,18.51
2018-04-22T22:45:01.707Z,18.54
2018-04-22T22:47:28.089Z,18.60
2018-04-22T22:49:54.426Z,18.50
2018-04-22T22:52:20.777Z,18.44
2018-04-22T22:54:47.129Z,18.34
2018-04-22T22:57:13.547Z,18.14
2018-04-22T22:59:39.933Z,18.06
2018-04-22T23:02:06.341Z,18.06
2018-04-22T23:04:32.685Z,17.98
2018-04-22T23:06:59.161Z,17.93
2018-04-22T23:09:25.709Z,17.88
2018-04-22T23:11:52.116Z,17.96
2018-04-22T23:14:18.549Z,17.98
2018-04-22T23:16:44.917Z,17.98
2018-04-22T23:19:11.312Z,18.03
2018-04-22T23:21:38.022Z,17.93
2018-04-22T23:24:04.455Z,17.89
2018-04-22T23:26:30.880Z,17.85
2018-04-22T23:28:57.272Z,17.85
2018-04-22T23:31:23.687Z,17.76
2018-04-22T23:33:50.076Z,17.66
2018-04-22T23:36:16.422Z,17.53
2018-04-22T23:38:42.781Z,17.55
2018-04-22T23:41:09.141Z,17.60
2018-04-22T23:43:35.544Z,17.63
2018-04-22T23:46:01.916Z,17.68
2018-04-22T23:48:28.292Z,17.78
2018-04-22T23:50:54.613Z,17.75
2018-04-22T23:53:20.944Z,17.77
2018-04-22T23:55:47.342Z,17.68
2018-04-22T23:58:13.670Z,17.58
